createdAt,value
2023-05-05T00:00:20.901Z,100389.16
2023-05-05T00:02:49.873Z,100391.53
2023-05-05T00:05:18.048Z,100384.41
2023-05-05T00:07:46.624Z,100381.47
2023-05-05T00:10:15.189Z,100390.50
2023-05-05T00:12:43.728Z,100383.88
2023-05-05T00:15:11.889Z,100386.91
2023-05-05T00:17:40.680Z,100381.88
2023-05-05T00:20:10.108Z,100382.38
2023-05-05T00:22:38.780Z,100376.22
2023-05-05T00:25:07.669Z,100372.88
2023-05-05T00:27:36.330Z,100377.09
2023-05-05T00:30:06.186Z,100368.22
2023-05-05T00:32:34.868Z,100358.91
2023-05-05T00:35:02.996Z,100357.09
2023-05-05T00:37:31.561Z,100353.84
2023-05-05T00:40:00.197Z,100357.72
2023-05-05T00:42:28.550Z,100344.91
2023-05-05T00:44:56.641Z,100346.56
2023-05-05T00:47:25.091Z,100344.44
2023-05-05T00:49:53.634Z,100352.16
2023-05-05T00:52:22.197Z,100335.00
2023-05-05T00:54:50.440Z,100339.84
2023-05-05T00:57:18.615Z,100343.88
2023-05-05T00:59:48.006Z,100345.34
2023-05-05T01:02:16.486Z,100343.25
2023-05-05T01:04:44.583Z,100340.38
2023-05-05T01:10:42.261Z,100338.13
2023-05-05T01:13:22.475Z,100339.31
2023-05-05T01:16:16.261Z,100338.03
2023-05-05T01:19:25.705Z,100344.34
2023-05-05T01:22:01.533Z,100335.03
2023-05-05T01:24:56.979Z,100338.25
2023-05-05T01:27:50.001Z,100329.94
2023-05-05T01:30:58.318Z,100338.13
2023-05-05T01:33:35.211Z,100336.81
2023-05-05T01:36:14.537Z,100341.78
2023-05-05T01:38:46.148Z,100336.97
2023-05-05T01:41:27.989Z,100345.31
2023-05-05T01:44:01.318Z,100356.31
2023-05-05T01:46:29.899Z,100348.81
2023-05-05T01:48:59.310Z,100350.00
2023-05-05T01:51:29.392Z,100353.03
2023-05-05T01:54:02.697Z,100357.03
2023-05-05T01:56:32.784Z,100360.22
2023-05-05T01:59:02.441Z,100365.72
2023-05-05T02:01:31.782Z,100364.59
2023-05-05T02:04:01.045Z,100358.78
2023-05-05T02:06:32.464Z,100355.97
2023-05-05T02:09:01.553Z,100356.13
2023-05-05T02:11:30.755Z,100354.31
2023-05-05T02:14:00.110Z,100349.81
2023-05-05T02:16:31.228Z,100353.13
2023-05-05T02:19:04.721Z,100354.16
2023-05-05T02:21:33.922Z,100353.94
2023-05-05T02:24:02.641Z,100355.63
2023-05-05T02:26:34.251Z,100353.78
2023-05-05T02:29:18.835Z,100343.28
2023-05-05T02:31:51.194Z,100348.13
2023-05-05T02:34:25.354Z,100347.66
2023-05-05T02:36:57.368Z,100359.34
2023-05-05T02:39:58.389Z,100340.69
2023-05-05T02:42:30.723Z,100332.34
2023-05-05T02:45:03.505Z,100338.16
2023-05-05T02:47:38.650Z,100338.34
2023-05-05T02:50:08.859Z,100332.69
2023-05-05T02:52:37.807Z,100334.38
2023-05-05T02:55:08.018Z,100336.38
2023-05-05T02:57:44.728Z,100329.91
2023-05-05T03:00:45.948Z,100337.25
2023-05-05T03:03:32.473Z,100333.41
2023-05-05T03:06:24.093Z,100335.06
2023-05-05T03:09:11.176Z,100327.22
2023-05-05T03:11:51.625Z,100329.94
2023-05-05T03:14:22.316Z,100318.13
2023-05-05T03:16:51.380Z,100318.94
2023-05-05T03:19:21.437Z,100320.78
2023-05-05T03:21:50.016Z,100324.97
2023-05-05T03:24:22.473Z,100324.81
2023-05-05T03:26:51.517Z,100329.13
2023-05-05T03:29:19.674Z,100325.97
2023-05-05T03:31:48.168Z,100324.47
2023-05-05T03:34:16.314Z,100323.16
2023-05-05T03:36:44.804Z,100326.16
2023-05-05T03:39:13.276Z,100324.66
2023-05-05T03:41:41.331Z,100320.19
2023-05-05T03:44:09.780Z,100321.00
2023-05-05T03:46:38.239Z,100329.16
2023-05-05T03:49:07.160Z,100329.16
2023-05-05T03:51:35.676Z,100328.00
2023-05-05T03:54:04.329Z,100323.34
2023-05-05T03:56:32.541Z,100330.50
2023-05-05T03:59:00.807Z,100332.50
2023-05-05T04:01:31.449Z,100328.16
2023-05-05T04:03:59.991Z,100330.69
2023-05-05T04:06:28.125Z,100332.16
2023-05-05T04:08:56.694Z,100332.34
2023-05-05T04:11:25.222Z,100328.16
2023-05-05T04:13:53.704Z,100321.16
2023-05-05T04:16:22.271Z,100322.19
2023-05-05T04:18:50.786Z,100331.66
2023-05-05T04:21:19.419Z,100330.19
2023-05-05T04:23:47.513Z,100332.50
2023-05-05T04:26:15.649Z,100336.00
2023-05-05T04:28:44.050Z,100334.81
2023-05-05T04:31:12.642Z,100324.50
2023-05-05T04:33:41.236Z,100334.03
2023-05-05T04:36:09.830Z,100337.00
2023-05-05T04:38:38.359Z,100333.50
2023-05-05T04:41:07.486Z,100335.81
2023-05-05T04:43:35.912Z,100344.28
2023-05-05T04:46:04.448Z,100349.78
2023-05-05T04:48:34.398Z,100347.94
2023-05-05T04:51:07.202Z,100352.75
2023-05-05T04:53:36.088Z,100350.41
2023-05-05T04:56:04.649Z,100356.88
2023-05-05T04:58:33.074Z,100351.84
2023-05-05T05:01:01.582Z,100352.13
2023-05-05T05:03:32.123Z,100357.25
2023-05-05T05:06:00.888Z,100354.22
2023-05-05T05:08:29.344Z,100343.13
2023-05-05T05:10:57.473Z,100351.25
2023-05-05T05:13:26.163Z,100357.97
2023-05-05T05:15:54.724Z,100358.28
2023-05-05T05:18:23.194Z,100347.66
2023-05-05T05:20:51.336Z,100348.66
2023-05-05T05:23:19.546Z,100349.34
2023-05-05T05:25:47.871Z,100347.84
2023-05-05T05:28:16.420Z,100339.47
2023-05-05T05:30:44.598Z,100340.81
2023-05-05T05:33:13.104Z,100345.13
2023-05-05T05:35:41.644Z,100340.31
2023-05-05T05:38:10.147Z,100342.81
2023-05-05T05:40:38.666Z,100344.03
2023-05-05T05:43:07.232Z,100342.88
2023-05-05T05:45:35.929Z,100351.53
2023-05-05T05:48:04.524Z,100353.72
2023-05-05T05:50:33.209Z,100346.53
2023-05-05T05:53:01.735Z,100348.66
2023-05-05T05:55:30.224Z,100348.19
2023-05-05T05:57:58.763Z,100342.75
2023-05-05T06:00:27.149Z,100341.22
2023-05-05T06:02:55.785Z,100352.44
2023-05-05T06:05:24.398Z,100353.47
2023-05-05T06:07:52.904Z,100346.81
2023-05-05T06:12:54.111Z,100358.75
2023-05-05T06:15:22.629Z,100363.47
2023-05-05T06:17:51.214Z,100360.56
2023-05-05T06:20:19.552Z,100362.59
2023-05-05T06:22:47.728Z,100362.75
2023-05-05T06:25:16.662Z,100364.97
2023-05-05T06:27:45.176Z,100361.81
2023-05-05T06:30:14.823Z,100370.25
2023-05-05T06:32:43.412Z,100363.88
2023-05-05T06:35:12.397Z,100370.47
2023-05-05T06:37:40.937Z,100362.06
2023-05-05T06:40:10.549Z,100369.88
2023-05-05T06:42:39.193Z,100373.38
2023-05-05T06:45:08.059Z,100371.03
2023-05-05T06:47:37.025Z,100370.06
2023-05-05T06:50:05.762Z,100374.41
2023-05-05T06:52:34.559Z,100370.91
2023-05-05T06:55:03.880Z,100382.28
2023-05-05T06:57:32.451Z,100371.91
2023-05-05T07:00:01.235Z,100364.19
2023-05-05T07:02:29.888Z,100371.91
2023-05-05T07:04:58.579Z,100362.56
2023-05-05T07:07:27.134Z,100361.66
2023-05-05T07:09:55.919Z,100358.94
2023-05-05T07:12:24.486Z,100356.59
2023-05-05T07:14:52.945Z,100355.75
2023-05-05T07:17:22.172Z,100351.25
2023-05-05T07:19:51.316Z,100350.34
2023-05-05T07:22:19.833Z,100354.53
2023-05-05T07:24:49.739Z,100360.19
2023-05-05T07:27:18.960Z,100358.84
2023-05-05T07:29:47.423Z,100364.03
2023-05-05T07:32:16.197Z,100349.59
2023-05-05T07:34:44.729Z,100360.41
2023-05-05T07:37:13.741Z,100363.81
2023-05-05T07:39:42.272Z,100352.28
2023-05-05T07:42:11.388Z,100363.69
2023-05-05T07:44:39.961Z,100356.03
2023-05-05T07:47:08.493Z,100363.22
2023-05-05T07:49:36.996Z,100363.09
2023-05-05T07:52:05.768Z,100365.34
2023-05-05T07:54:34.311Z,100361.47
2023-05-05T07:57:03.008Z,100369.72
2023-05-05T07:59:31.512Z,100365.88
2023-05-05T08:01:59.934Z,100369.78
2023-05-05T08:04:28.744Z,100369.41
2023-05-05T08:06:57.285Z,100363.22
2023-05-05T08:09:25.827Z,100362.66
2023-05-05T08:11:54.368Z,100370.59
2023-05-05T08:14:22.898Z,100360.97
2023-05-05T08:16:51.344Z,100357.63
2023-05-05T08:19:28.818Z,100360.06
2023-05-05T08:22:00.575Z,100357.84
2023-05-05T08:24:29.741Z,100350.34
2023-05-05T08:26:58.595Z,100340.97
2023-05-05T08:29:27.109Z,100356.38
2023-05-05T08:31:55.853Z,100353.19
2023-05-05T08:34:24.385Z,100350.50
2023-05-05T08:36:52.952Z,100349.88
2023-05-05T08:39:21.412Z,100354.13
2023-05-05T08:41:50.056Z,100359.56
2023-05-05T08:44:18.595Z,100344.34
2023-05-05T08:46:47.244Z,100353.50
2023-05-05T08:49:16.995Z,100345.41
2023-05-05T08:51:46.981Z,100343.53
2023-05-05T08:54:20.188Z,100346.72
2023-05-05T08:56:51.483Z,100346.56
2023-05-05T08:59:25.120Z,100340.63
2023-05-05T09:01:54.971Z,100341.88
2023-05-05T09:04:23.804Z,100340.31
2023-05-05T09:06:52.337Z,100342.38
2023-05-05T09:09:21.473Z,100338.75
2023-05-05T09:11:50.319Z,100338.75
2023-05-05T09:14:18.750Z,100339.97
2023-05-05T09:16:47.292Z,100341.28
2023-05-05T09:19:15.839Z,100336.34
2023-05-05T09:21:53.069Z,100340.19
2023-05-05T09:24:21.835Z,100347.38
2023-05-05T09:26:50.341Z,100336.94
2023-05-05T09:29:23.141Z,100339.91
2023-05-05T09:32:19.192Z,100331.50
2023-05-05T09:35:02.393Z,100340.19
2023-05-05T09:37:32.745Z,100323.84
2023-05-05T09:40:02.097Z,100330.63
2023-05-05T09:42:30.610Z,100332.59
2023-05-05T09:44:59.999Z,100330.28
2023-05-05T09:47:38.705Z,100320.25
2023-05-05T09:50:07.765Z,100320.66
2023-05-05T09:52:36.518Z,100316.94
2023-05-05T09:55:05.086Z,100317.44
2023-05-05T09:57:35.451Z,100313.50
2023-05-05T10:00:06.312Z,100311.22
2023-05-05T10:02:37.553Z,100307.41
2023-05-05T10:05:15.600Z,100312.84
2023-05-05T10:07:46.981Z,100307.91
2023-05-05T10:10:17.650Z,100295.50
2023-05-05T10:12:47.930Z,100300.03
2023-05-05T10:15:17.883Z,100301.50
2023-05-05T10:18:06.192Z,100297.34
2023-05-05T10:20:38.144Z,100293.88
2023-05-05T10:23:09.481Z,100294.53
2023-05-05T10:26:08.055Z,100295.69
2023-05-05T10:28:46.137Z,100294.44
2023-05-05T10:31:26.411Z,100289.25
2023-05-05T10:34:04.618Z,100292.97
2023-05-05T10:36:33.653Z,100285.06
2023-05-05T10:39:02.286Z,100284.34
2023-05-05T10:41:31.999Z,100287.44
2023-05-05T10:44:03.675Z,100283.09
2023-05-05T10:46:33.191Z,100270.22
2023-05-05T10:49:26.836Z,100266.50
2023-05-05T10:52:23.208Z,100280.63
2023-05-05T10:55:31.702Z,100270.84
2023-05-05T10:58:01.039Z,100255.81
2023-05-05T11:00:41.406Z,100258.50
2023-05-05T11:03:18.881Z,100252.63
2023-05-05T11:06:05.108Z,100250.00
2023-05-05T11:08:35.503Z,100257.16
2023-05-05T11:11:04.624Z,100243.06
2023-05-05T11:13:33.490Z,100247.53
2023-05-05T11:16:03.185Z,100248.03
2023-05-05T11:18:44.496Z,100253.41
2023-05-05T11:21:17.557Z,100249.03
2023-05-05T11:23:51.316Z,100242.72
2023-05-05T11:26:50.347Z,100234.50
2023-05-05T11:29:18.861Z,100227.41
2023-05-05T11:31:48.803Z,100229.84
2023-05-05T11:34:30.137Z,100233.00
2023-05-05T11:37:03.335Z,100226.00
2023-05-05T11:39:44.416Z,100222.03
2023-05-05T11:42:27.755Z,100221.22
2023-05-05T11:44:56.697Z,100225.59
2023-05-05T11:47:28.038Z,100222.28
2023-05-05T11:49:56.895Z,100220.41
2023-05-05T11:52:27.554Z,100222.59
2023-05-05T11:55:02.292Z,100219.66
2023-05-05T11:57:31.327Z,100217.31
2023-05-05T12:00:04.678Z,100218.97
2023-05-05T12:02:33.361Z,100222.59
2023-05-05T12:05:02.724Z,100226.13
2023-05-05T12:07:33.733Z,100221.38
2023-05-05T12:10:02.324Z,100209.50
2023-05-05T12:12:41.506Z,100209.00
2023-05-05T12:15:10.816Z,100214.00
2023-05-05T12:17:42.817Z,100221.88
2023-05-05T12:20:12.827Z,100203.31
2023-05-05T12:22:42.166Z,100206.16
2023-05-05T12:25:10.912Z,100200.97
2023-05-05T12:27:39.429Z,100205.63
2023-05-05T12:30:19.614Z,100203.53
2023-05-05T12:32:48.219Z,100197.28
2023-05-05T12:35:17.139Z,100200.88
2023-05-05T12:37:46.404Z,100186.78
2023-05-05T12:40:47.957Z,100187.56
2023-05-05T12:43:45.950Z,100180.00
2023-05-05T12:46:14.982Z,100175.47
2023-05-05T12:48:47.231Z,100174.66
2023-05-05T12:51:24.217Z,100174.44
2023-05-05T12:54:11.246Z,100170.44
2023-05-05T12:56:44.826Z,100167.31
2023-05-05T12:59:30.077Z,100157.91
2023-05-05T13:02:01.498Z,100169.56
2023-05-05T13:04:30.447Z,100173.09
2023-05-05T13:07:15.760Z,100161.53
2023-05-05T13:09:54.649Z,100154.13
2023-05-05T13:12:24.465Z,100161.75
2023-05-05T13:14:56.221Z,100166.28
2023-05-05T13:17:24.697Z,100149.13
2023-05-05T13:19:53.218Z,100149.34
2023-05-05T13:22:21.737Z,100153.72
2023-05-05T13:24:52.805Z,100144.66
2023-05-05T13:27:37.758Z,100137.84
2023-05-05T13:30:06.701Z,100130.28
2023-05-05T13:32:35.796Z,100142.25
2023-05-05T13:35:04.543Z,100138.25
2023-05-05T13:37:33.106Z,100138.69
2023-05-05T13:40:01.625Z,100137.63
2023-05-05T13:42:30.262Z,100136.28
2023-05-05T13:44:58.760Z,100129.16
2023-05-05T13:47:27.282Z,100118.28
2023-05-05T13:49:56.252Z,100111.00
2023-05-05T13:52:24.746Z,100109.09
2023-05-05T13:54:53.340Z,100105.34
2023-05-05T13:57:21.911Z,100101.03
2023-05-05T13:59:50.456Z,100096.72
2023-05-05T14:02:18.946Z,100101.13
2023-05-05T14:04:47.621Z,100091.59
2023-05-05T14:07:16.056Z,100097.25
2023-05-05T14:09:44.568Z,100078.25
2023-05-05T14:12:13.501Z,100088.50
2023-05-05T14:14:41.941Z,100083.06
2023-05-05T14:17:10.422Z,100088.28
2023-05-05T14:19:38.957Z,100080.59
2023-05-05T14:22:07.418Z,100080.88
2023-05-05T14:24:35.979Z,100082.78
2023-05-05T14:27:04.786Z,100089.34
2023-05-05T14:29:33.468Z,100064.59
2023-05-05T14:32:02.112Z,100064.34
2023-05-05T14:34:30.637Z,100077.03
2023-05-05T14:36:59.228Z,100058.25
2023-05-05T14:39:27.733Z,100057.69
2023-05-05T14:41:56.172Z,100056.34
2023-05-05T14:44:24.709Z,100047.25
2023-05-05T14:46:53.669Z,100053.25
2023-05-05T14:49:22.151Z,100048.09
2023-05-05T14:51:50.698Z,100051.88
2023-05-05T14:54:27.902Z,100050.00
2023-05-05T14:56:58.366Z,100039.34
2023-05-05T14:59:27.582Z,100049.44
2023-05-05T15:01:56.314Z,100033.34
2023-05-05T15:04:24.892Z,100036.00
2023-05-05T15:06:53.369Z,100048.00
2023-05-05T15:09:21.812Z,100043.28
2023-05-05T15:11:50.308Z,100042.78
2023-05-05T15:14:18.776Z,100032.63
2023-05-05T15:16:47.699Z,100035.31
2023-05-05T15:19:16.168Z,100041.81
2023-05-05T15:21:44.621Z,100038.03
2023-05-05T15:24:13.332Z,100029.03
2023-05-05T15:26:42.098Z,100038.81
2023-05-05T15:29:10.597Z,100023.84
2023-05-05T15:31:39.189Z,100023.03
2023-05-05T15:34:07.661Z,100026.53
2023-05-05T15:36:36.200Z,100021.09
2023-05-05T15:39:04.848Z,100016.50
2023-05-05T15:41:35.660Z,99996.81
2023-05-05T15:44:04.970Z,99992.97
2023-05-05T15:46:34.261Z,99998.06
2023-05-05T15:49:02.799Z,100000.25
2023-05-05T15:51:32.360Z,99993.78
2023-05-05T15:54:00.878Z,99997.84
2023-05-05T15:56:29.562Z,99987.72
2023-05-05T15:58:58.006Z,100001.56
2023-05-05T16:01:26.584Z,99986.66
2023-05-05T16:03:55.084Z,99993.41
2023-05-05T16:06:23.565Z,99991.75
2023-05-05T16:08:52.092Z,99993.84
2023-05-05T16:11:22.385Z,99993.09
2023-05-05T16:13:52.322Z,99983.56
2023-05-05T16:16:20.846Z,99995.13
2023-05-05T16:18:50.111Z,99982.56
2023-05-05T16:21:18.635Z,99973.81
2023-05-05T16:23:47.491Z,99964.81
2023-05-05T16:26:16.245Z,99972.72
2023-05-05T16:28:44.809Z,99965.28
2023-05-05T16:31:13.670Z,99963.91
2023-05-05T16:33:43.764Z,99959.50
2023-05-05T16:36:13.035Z,99969.72
2023-05-05T16:38:44.626Z,99973.25
2023-05-05T16:41:13.291Z,99970.72
2023-05-05T16:43:41.790Z,99970.41
2023-05-05T16:46:10.408Z,99971.75
2023-05-05T16:48:39.122Z,99969.59
2023-05-05T16:51:07.625Z,99965.22
2023-05-05T16:53:36.354Z,99966.31
2023-05-05T16:56:04.996Z,99956.22
2023-05-05T16:58:33.667Z,99950.84
2023-05-05T17:01:03.497Z,99955.66
2023-05-05T17:03:31.977Z,99957.06
2023-05-05T17:06:00.774Z,99955.34
2023-05-05T17:08:29.468Z,99945.53
2023-05-05T17:10:58.069Z,99956.09
2023-05-05T17:13:26.915Z,99936.50
2023-05-05T17:15:55.502Z,99939.06
2023-05-05T17:18:26.040Z,99945.31
2023-05-05T17:20:54.624Z,99940.16
2023-05-05T17:23:23.307Z,99933.09
2023-05-05T17:25:51.858Z,99938.69
2023-05-05T17:28:20.733Z,99932.38
2023-05-05T17:30:49.266Z,99936.53
2023-05-05T17:33:21.481Z,99928.72
2023-05-05T17:35:50.170Z,99922.38
2023-05-05T17:38:18.618Z,99926.31
2023-05-05T17:40:47.264Z,99918.75
2023-05-05T17:43:15.821Z,99930.59
2023-05-05T17:45:44.465Z,99935.34
2023-05-05T17:48:12.969Z,99940.19
2023-05-05T17:50:43.313Z,99943.06
2023-05-05T17:53:12.377Z,99940.53
2023-05-05T17:55:40.922Z,99938.38
2023-05-05T17:58:09.404Z,99933.22
2023-05-05T18:00:38.174Z,99934.63
2023-05-05T18:03:06.846Z,99929.69
2023-05-05T18:05:35.525Z,99921.19
2023-05-05T18:08:04.132Z,99920.84
2023-05-05T18:10:32.734Z,99922.91
2023-05-05T18:13:01.432Z,99916.09
2023-05-05T18:15:30.863Z,99921.19
2023-05-05T18:17:59.400Z,99924.03
2023-05-05T18:20:27.973Z,99936.75
2023-05-05T18:22:56.602Z,99933.34
2023-05-05T18:25:25.086Z,99947.00
2023-05-05T18:27:53.848Z,99924.72
2023-05-05T18:30:22.581Z,99954.44
2023-05-05T18:32:51.124Z,99959.09
2023-05-05T18:35:19.615Z,99956.69
2023-05-05T18:37:48.110Z,99954.16
2023-05-05T18:40:16.821Z,99936.94
2023-05-05T18:42:45.499Z,99957.16
2023-05-05T18:45:13.964Z,99951.63
2023-05-05T18:47:42.375Z,99938.72
2023-05-05T18:50:11.097Z,99936.03
2023-05-05T18:52:39.585Z,99954.94
2023-05-05T18:55:08.408Z,99953.88
2023-05-05T18:57:37.054Z,99958.94
2023-05-05T19:00:05.879Z,99961.50
2023-05-05T19:02:34.586Z,99973.69
2023-05-05T19:05:03.913Z,99978.38
2023-05-05T19:07:35.855Z,99985.06
2023-05-05T19:10:06.506Z,99984.47
2023-05-05T19:12:35.190Z,99981.16
2023-05-05T19:15:03.751Z,99984.28
2023-05-05T19:17:32.197Z,99983.94
2023-05-05T19:20:00.743Z,99986.63
2023-05-05T19:22:29.220Z,99987.72
2023-05-05T19:24:57.726Z,99998.72
2023-05-05T19:27:26.520Z,100011.63
2023-05-05T19:29:55.047Z,100006.78
2023-05-05T19:32:23.743Z,100011.44
2023-05-05T19:34:54.384Z,100011.41
2023-05-05T19:37:23.245Z,100022.44
2023-05-05T19:39:51.783Z,100021.50
2023-05-05T19:42:20.741Z,100007.13
2023-05-05T19:44:49.271Z,100012.25
2023-05-05T19:47:18.022Z,100011.75
2023-05-05T19:49:46.609Z,100000.59
2023-05-05T19:52:15.147Z,99999.09
2023-05-05T19:54:43.930Z,99990.25
2023-05-05T19:57:12.752Z,99991.03
2023-05-05T19:59:41.762Z,99996.06
2023-05-05T20:02:11.774Z,99997.53
2023-05-05T20:04:40.482Z,100014.13
2023-05-05T20:07:09.020Z,100026.34
2023-05-05T20:09:38.066Z,100036.50
2023-05-05T20:12:06.791Z,100033.63
2023-05-05T20:14:35.720Z,100032.06
2023-05-05T20:17:04.270Z,100037.72
2023-05-05T20:19:32.744Z,100036.09
2023-05-05T20:22:01.315Z,100032.00
2023-05-05T20:24:29.903Z,100031.00
2023-05-05T20:26:58.407Z,100020.31
2023-05-05T20:29:26.855Z,100020.94
2023-05-05T20:31:55.452Z,100028.16
2023-05-05T20:34:25.195Z,100012.44
2023-05-05T20:36:54.258Z,100015.59
2023-05-05T20:39:22.942Z,100017.88
2023-05-05T20:41:51.430Z,100005.09
2023-05-05T20:44:19.864Z,100000.97
2023-05-05T20:46:48.436Z,100011.97
2023-05-05T20:49:17.011Z,100014.50
2023-05-05T20:51:45.679Z,100013.25
2023-05-05T20:54:14.316Z,100008.09
2023-05-05T20:56:42.868Z,100012.84
2023-05-05T20:59:11.381Z,100019.22
2023-05-05T21:01:39.954Z,100021.09
2023-05-05T21:04:08.471Z,100028.75
2023-05-05T21:06:36.990Z,100029.81
2023-05-05T21:09:06.853Z,100031.84
2023-05-05T21:11:35.445Z,100018.00
2023-05-05T21:14:05.343Z,100027.72
2023-05-05T21:16:33.910Z,100015.13
2023-05-05T21:19:02.569Z,100027.53
2023-05-05T21:21:31.820Z,100022.34
2023-05-05T21:24:00.429Z,100026.28
2023-05-05T21:26:28.966Z,100021.31
2023-05-05T21:28:57.455Z,100017.41
2023-05-05T21:31:25.941Z,100014.31
2023-05-05T21:33:54.534Z,100020.69
2023-05-05T21:36:23.005Z,100010.38
2023-05-05T21:38:51.543Z,100017.41
2023-05-05T21:41:20.056Z,100026.91
2023-05-05T21:43:48.224Z,100022.19
2023-05-05T21:46:17.723Z,100027.97
2023-05-05T21:48:48.626Z,100020.50
2023-05-05T21:51:17.452Z,100033.31
2023-05-05T21:53:46.218Z,100023.81
2023-05-05T21:56:14.931Z,100027.53
2023-05-05T21:58:43.382Z,100031.06
2023-05-05T22:01:12.011Z,100023.44
2023-05-05T22:03:42.246Z,100018.06
2023-05-05T22:06:11.791Z,100028.38
2023-05-05T22:08:40.240Z,100025.91
2023-05-05T22:11:08.876Z,100021.56
2023-05-05T22:13:38.956Z,100024.66
2023-05-05T22:16:11.012Z,100020.34
2023-05-05T22:18:39.688Z,100017.44
2023-05-05T22:21:08.301Z,100012.47
2023-05-05T22:23:37.171Z,100016.81
2023-05-05T22:26:05.834Z,100017.84
2023-05-05T22:28:34.315Z,100020.09
2023-05-05T22:31:02.927Z,100022.78
2023-05-05T22:33:31.494Z,100021.13
2023-05-05T22:36:00.041Z,100025.69
2023-05-05T22:38:28.148Z,100029.81
2023-05-05T22:40:56.607Z,100030.84
2023-05-05T22:43:25.137Z,100034.97
2023-05-05T22:45:53.882Z,100023.22
2023-05-05T22:48:22.921Z,100020.97
2023-05-05T22:50:51.617Z,100023.03
2023-05-05T22:53:20.112Z,100018.69
2023-05-05T22:55:48.596Z,100026.13
2023-05-05T22:58:17.059Z,100013.75
2023-05-05T23:00:45.743Z,100019.13
2023-05-05T23:03:14.919Z,100013.75
2023-05-05T23:05:43.000Z,100018.28
2023-05-05T23:08:11.474Z,100013.53
2023-05-05T23:10:39.953Z,100023.88
2023-05-05T23:13:08.522Z,100012.72
2023-05-05T23:15:37.068Z,100014.16
2023-05-05T23:18:05.631Z,100015.59
2023-05-05T23:20:34.119Z,100027.97
2023-05-05T23:23:02.244Z,100023.22
2023-05-05T23:25:30.769Z,100020.97
2023-05-05T23:27:59.285Z,100026.13
2023-05-05T23:30:27.866Z,100028.78
2023-05-05T23:32:57.531Z,100019.69
2023-05-05T23:35:26.399Z,100025.69
2023-05-05T23:37:54.879Z,100028.97
2023-05-05T23:40:23.060Z,100033.03
2023-05-05T23:42:51.220Z,100031.81
2023-05-05T23:45:19.747Z,100022.28
2023-05-05T23:47:48.195Z,100023.34
2023-05-05T23:50:16.865Z,100018.19
2023-05-05T23:52:45.795Z,100021.06
2023-05-05T23:55:14.493Z,100016.13
2023-05-05T23:57:42.594Z,100025.19
